Terminal Aerodrome Forecast
Issued by NWS

Home | Current Version | Previous Version | Text Only | Print | Product List | Glossary On
Versions: 1 2 3 4 5 6 7 8 9 10 11 12 13 14 15 16 17 18
000
FTUS45 KSLC 232326
TAFBCE
TAF
KBCE 232326Z 2400/2424 32011KT P6SM VCSH SCT090 BKN130
     FM240300 27007KT P6SM FEW070 BKN140
     FM241500 14012KT P6SM SCT060 BKN140
     FM241800 14012KT P6SM VCTS SCT050CB BKN110=

USA.gov is the U.S. government's official web portal to all federal, state and local government web resources and services.